Time;durP1;ratioP1;P1;durP2;ratioP2;P2;SDS_P1;SDS_P2;PMS_P1;PMS_P2;Temp;Humidity;BMP_temperature;BMP_pressure;BME280_temperature;BME280_humidity;BME280_pressure;Samples;Min_cycle;Max_cycle;Signal;HPM_P1;HPM_P2
2023/02/16 00:00:46;;;;;;;73.88;35.97;;;0.10;99.90;;;;;;5071273;28;20025;-76
2023/02/16 00:03:15;;;;;;;86.60;38.58;;;0.10;99.90;;;;;;5070575;28;20025;-76
2023/02/16 00:05:41;;;;;;;75.85;36.70;;;0.10;99.90;;;;;;5070975;28;20028;-77
2023/02/16 00:08:06;;;;;;;;;;;0.10;99.90;;;;;;5071718;28;20024;-78
2023/02/16 00:10:34;;;;;;;79.90;35.00;;;0.20;99.90;;;;;;5052650;28;20415;-77
2023/02/16 00:15:45;;;;;;;68.85;33.72;;;0.30;99.90;;;;;;5071098;28;20093;-76
2023/02/16 00:18:18;;;;;;;;;;;0.30;99.90;;;;;;5053671;28;20103;-76
2023/02/16 00:20:45;;;;;;;69.20;32.83;;;0.30;99.90;;;;;;5070848;28;19909;-76
2023/02/16 00:23:11;;;;;;;71.63;32.65;;;0.30;99.90;;;;;;5070481;28;20048;-77
2023/02/16 00:25:36;;;;;;;;;;;0.30;99.90;;;;;;5053101;28;20020;-76
2023/02/16 00:28:05;;;;;;;67.55;33.58;;;0.30;99.90;;;;;;5052443;28;19908;-77
2023/02/16 00:30:31;;;;;;;86.57;40.65;;;0.20;99.90;;;;;;5070097;28;20037;-77
2023/02/16 00:32:57;;;;;;;;;;;0.20;99.90;;;;;;5052307;28;20046;-76
2023/02/16 00:35:22;;;;;;;76.35;38.97;;;0.10;99.90;;;;;;5070118;28;19909;-77
2023/02/16 00:37:48;;;;;;;;;;;0.00;99.90;;;;;;5070727;28;20036;-77
2023/02/16 00:40:15;;;;;;;79.88;39.33;;;0.00;99.90;;;;;;5070142;28;19909;-76
2023/02/16 00:42:43;;;;;;;76.90;39.05;;;0.00;99.90;;;;;;5052079;28;20054;-76
2023/02/16 00:45:16;;;;;;;82.70;40.53;;;-0.10;99.90;;;;;;5070231;28;20025;-76
2023/02/16 00:47:45;;;;;;;72.18;35.88;;;-0.10;99.90;;;;;;5052162;28;20405;-76
2023/02/16 00:50:26;;;;;;;70.72;34.60;;;-0.10;99.90;;;;;;5052155;28;20043;-77
2023/02/16 00:52:51;;;;;;;108.50;48.70;;;-0.10;99.90;;;;;;5052071;28;20025;-78
2023/02/16 00:55:20;;;;;;;;;;;-0.10;99.90;;;;;;5070617;28;20040;-77
2023/02/16 00:58:09;;;;;;;115.00;52.35;;;-0.10;99.90;;;;;;5070229;28;19908;-77
2023/02/16 01:00:39;;;;;;;114.57;53.38;;;-0.20;99.90;;;;;;5069875;28;20507;-78
2023/02/16 01:03:08;;;;;;;114.63;53.03;;;-0.20;99.90;;;;;;5069903;28;20067;-77
2023/02/16 01:05:34;;;;;;;97.35;44.80;;;-0.20;99.90;;;;;;5051871;28;20029;-77
2023/02/16 01:13:31;;;;;;;80.50;37.58;;;-0.20;99.90;;;;;;5069607;28;20463;-77
2023/02/16 01:15:57;;;;;;;113.78;51.72;;;-0.20;99.90;;;;;;5051336;28;20031;-78
2023/02/16 01:18:22;;;;;;;;;;;-0.20;99.90;;;;;;5051869;28;20413;-78
2023/02/16 01:20:48;;;;;;;95.80;43.78;;;-0.20;99.90;;;;;;5069450;28;19904;-78
2023/02/16 01:23:14;;;;;;;;;;;-0.10;99.90;;;;;;5069995;28;20451;-76
2023/02/16 01:25:40;;;;;;;96.35;43.13;;;-0.20;99.90;;;;;;5051744;28;19934;-80
2023/02/16 01:28:23;;;;;;;87.18;41.45;;;-0.30;99.90;;;;;;5069021;28;20032;-77
2023/02/16 01:30:51;;;;;;;76.07;38.42;;;-0.30;99.90;;;;;;5051312;28;20029;-76
2023/02/16 01:33:17;;;;;;;71.80;35.45;;;-0.30;99.90;;;;;;5050967;28;20440;-77
2023/02/16 01:35:43;;;;;;;;;;;-0.20;99.90;;;;;;5069992;28;20058;-78
2023/02/16 01:38:20;;;;;;;75.70;35.10;;;-0.20;99.90;;;;;;5069129;28;19999;-77
2023/02/16 01:40:55;;;;;;;77.32;35.63;;;-0.20;99.90;;;;;;5051311;28;20028;-77
2023/02/16 01:43:43;;;;;;;84.07;37.88;;;-0.20;99.90;;;;;;5069235;28;20025;-77
2023/02/16 01:46:24;;;;;;;78.13;34.65;;;0.00;99.90;;;;;;5069140;28;20020;-77
2023/02/16 01:48:50;;;;;;;70.43;35.50;;;-0.10;99.90;;;;;;5051095;28;20025;-77
2023/02/16 01:51:19;;;;;;;;;;;-0.10;99.90;;;;;;5051446;28;20031;-77
2023/02/16 01:53:47;;;;;;;80.03;34.30;;;-0.20;99.90;;;;;;5068270;28;20426;-78
2023/02/16 01:56:51;;;;;;;70.28;34.03;;;-0.20;99.90;;;;;;5068527;28;20660;-76
2023/02/16 02:00:00;;;;;;;69.43;33.15;;;-0.30;99.90;;;;;;4967502;28;20035;-77
2023/02/16 02:02:32;;;;;;;72.95;32.17;;;-0.30;99.90;;;;;;5050263;28;20120;-76
2023/02/16 02:05:35;;;;;;;71.20;32.90;;;-0.40;99.90;;;;;;5050438;28;20036;-77
2023/02/16 02:08:27;;;;;;;66.72;31.50;;;-0.40;99.90;;;;;;5050856;28;20037;-77
2023/02/16 02:11:13;;;;;;;79.78;34.13;;;-0.40;99.90;;;;;;5063734;28;20044;-77
2023/02/16 02:13:54;;;;;;;68.77;32.30;;;-0.40;99.90;;;;;;5050412;28;20035;-77
2023/02/16 02:16:22;;;;;;;77.80;33.47;;;-0.40;99.90;;;;;;5068420;28;20043;-77
2023/02/16 02:18:48;;;;;;;76.03;35.20;;;-0.50;99.90;;;;;;5068430;28;20024;-81
2023/02/16 02:24:50;;;;;;;69.60;31.30;;;-0.50;99.90;;;;;;5068683;28;20429;-77
2023/02/16 02:27:34;;;;;;;76.50;34.85;;;-0.50;99.90;;;;;;5050460;28;20029;-76
2023/02/16 02:30:31;;;;;;;77.68;33.92;;;-0.60;99.90;;;;;;5050517;28;20016;-78
2023/02/16 02:33:38;;;;;;;73.43;34.57;;;-0.60;99.90;;;;;;5067591;28;20060;-78
2023/02/16 02:36:39;;;;;;;65.30;32.65;;;-0.60;99.90;;;;;;4967327;28;20312;-77
2023/02/16 02:39:16;;;;;;;72.50;33.33;;;-0.60;99.90;;;;;;5018442;28;20127;-77
2023/02/16 02:42:05;;;;;;;75.30;36.22;;;-0.60;99.90;;;;;;5068301;28;20086;-78
2023/02/16 02:44:39;;;;;;;73.85;35.40;;;-0.50;99.90;;;;;;5067519;28;20035;-76
2023/02/16 02:47:05;;;;;;;84.45;37.20;;;-0.50;99.90;;;;;;5067884;28;20112;-76
2023/02/16 02:49:31;;;;;;;;;;;-0.50;99.90;;;;;;5068764;28;20155;-76
2023/02/16 02:51:57;;;;;;;81.32;36.10;;;-0.50;99.90;;;;;;5067973;28;19963;-78
2023/02/16 03:03:11;;;;;;;81.45;36.67;;;-0.40;99.90;;;;;;5068067;28;20039;-76
2023/02/16 03:05:40;;;;;;;80.72;34.50;;;-0.40;99.90;;;;;;5050762;28;20026;-77
2023/02/16 03:08:13;;;;;;;79.85;36.85;;;-0.40;99.90;;;;;;5072225;28;20025;-76
2023/02/16 03:13:36;;;;;;;87.45;37.10;;;-0.40;99.90;;;;;;5072330;28;20044;-78
2023/02/16 03:16:11;;;;;;;86.17;36.87;;;-0.40;99.90;;;;;;5072040;28;20025;-78
2023/02/16 03:29:49;;;;;;;90.30;39.58;;;-0.60;99.90;;;;;;5071366;28;20031;-78
2023/02/16 03:32:16;;;;;;;90.95;37.97;;;-0.60;99.90;;;;;;5071193;28;20029;-77
2023/02/16 03:34:42;;;;;;;82.07;37.25;;;-0.70;99.90;;;;;;5053676;28;20063;-77
2023/02/16 03:37:09;;;;;;;76.18;35.38;;;-0.70;99.90;;;;;;5071458;28;20029;-77
2023/02/16 03:40:26;;;;;;;81.28;37.22;;;-0.70;99.90;;;;;;5071274;28;20024;-77
2023/02/16 03:42:21;;;;;;;84.03;36.92;;;-0.70;99.90;;;;;;5071221;28;20416;-76
2023/02/16 03:44:47;;;;;;;87.43;37.60;;;-0.70;99.90;;;;;;5053593;28;20127;-77
2023/02/16 03:47:13;;;;;;;;;;;-0.60;99.90;;;;;;5071814;28;20425;-78
2023/02/16 03:49:39;;;;;;;93.10;40.17;;;-0.60;99.90;;;;;;5071312;28;19914;-77
2023/02/16 03:52:04;;;;;;;;;;;-0.60;99.90;;;;;;5053805;28;20059;-77
2023/02/16 03:54:30;;;;;;;115.90;46.28;;;-0.70;99.90;;;;;;5071364;28;19989;-78
2023/02/16 03:56:55;;;;;;;;;;;-0.70;99.90;;;;;;5071371;28;20067;-78
2023/02/16 03:59:21;;;;;;;128.32;53.08;;;-0.70;99.90;;;;;;5071330;28;20273;-78
2023/02/16 04:01:47;;;;;;;;;;;-0.80;99.90;;;;;;5071630;28;20158;-79
2023/02/16 04:04:13;;;;;;;120.63;49.72;;;-0.70;99.90;;;;;;5071104;28;19909;-78
2023/02/16 04:06:39;;;;;;;117.53;49.92;;;-0.80;99.90;;;;;;5071123;28;20028;-77
2023/02/16 04:09:05;;;;;;;107.60;46.17;;;-0.80;99.90;;;;;;5070990;28;20401;-78
2023/02/16 04:14:15;;;;;;;105.22;44.22;;;-0.90;99.90;;;;;;5070866;28;19988;-77
2023/02/16 04:16:41;;;;;;;;;;;-0.80;99.90;;;;;;5053246;28;20552;-79
2023/02/16 04:19:07;;;;;;;98.57;42.90;;;-0.80;99.90;;;;;;5052344;28;19942;-78
2023/02/16 04:21:32;;;;;;;;;;;-0.80;99.90;;;;;;5071256;28;20056;-77
2023/02/16 04:23:58;;;;;;;102.75;40.97;;;-0.80;99.90;;;;;;5070791;28;19931;-80
2023/02/16 04:26:24;;;;;;;;;;;-0.70;99.90;;;;;;5071164;28;20036;-78
2023/02/16 04:28:49;;;;;;;96.82;40.13;;;-0.70;99.90;;;;;;5070783;28;19909;-77
2023/02/16 04:31:15;;;;;;;;;;;-0.60;99.90;;;;;;5052603;28;20024;-77
2023/02/16 04:33:41;;;;;;;91.03;38.55;;;-0.60;99.90;;;;;;5070386;28;19929;-78
2023/02/16 04:36:07;;;;;;;;;;;-0.70;99.90;;;;;;5071020;28;20586;-78
2023/02/16 04:38:32;;;;;;;95.88;42.03;;;-0.70;99.90;;;;;;5070134;28;19948;-78
2023/02/16 04:40:58;;;;;;;;;;;-0.70;99.90;;;;;;5071027;28;20122;-77
2023/02/16 04:43:24;;;;;;;95.13;42.85;;;-0.70;99.90;;;;;;5070500;28;20062;-77
2023/02/16 04:45:49;;;;;;;;;;;-0.80;99.90;;;;;;5070723;28;20039;-79
2023/02/16 04:48:15;;;;;;;102.32;46.33;;;-0.80;99.90;;;;;;5052274;28;19908;-77
2023/02/16 04:50:40;;;;;;;;;;;-0.80;99.90;;;;;;5052821;28;20028;-77
2023/02/16 04:53:06;;;;;;;112.55;47.83;;;-0.80;99.90;;;;;;5070282;28;19908;-78
2023/02/16 04:55:32;;;;;;;;;;;-0.80;99.90;;;;;;5052709;28;20085;-78
2023/02/16 04:57:57;;;;;;;110.72;48.78;;;-0.90;99.90;;;;;;5052375;28;20277;-78
2023/02/16 05:00:23;;;;;;;;;;;-0.90;99.90;;;;;;5051982;28;20041;-77
2023/02/16 05:02:49;;;;;;;109.13;48.65;;;-0.90;99.90;;;;;;5070194;28;19908;-77
2023/02/16 05:05:14;;;;;;;;;;;-0.90;99.90;;;;;;5070508;28;20021;-78
2023/02/16 05:07:40;;;;;;;115.10;51.92;;;-0.90;99.90;;;;;;5069732;28;19923;-78
2023/02/16 05:10:06;;;;;;;;;;;-0.90;99.90;;;;;;5070356;28;20028;-78
2023/02/16 05:15:16;;;;;;;134.27;56.63;;;-0.90;99.90;;;;;;5069870;28;20062;-78
2023/02/16 05:17:41;;;;;;;;;;;-0.90;99.90;;;;;;5052232;28;20025;-78
2023/02/16 05:20:08;;;;;;;148.00;61.00;;;-0.90;99.90;;;;;;5069367;28;19961;-77
2023/02/16 05:22:34;;;;;;;127.00;55.88;;;-0.90;99.90;;;;;;5051736;28;20068;-77
2023/02/16 05:25:00;;;;;;;123.90;56.15;;;-0.80;99.90;;;;;;5069640;28;20035;-76
2023/02/16 05:27:28;;;;;;;115.10;50.80;;;-0.80;99.90;;;;;;5051651;28;20043;-77
2023/02/16 05:29:55;;;;;;;113.80;52.50;;;-0.90;99.90;;;;;;5051433;28;20028;-77
2023/02/16 05:32:21;;;;;;;116.65;52.85;;;-0.90;99.90;;;;;;5051250;28;20394;-78
2023/02/16 05:34:46;;;;;;;;;;;-0.90;99.90;;;;;;5069459;28;20420;-77
2023/02/16 05:37:14;;;;;;;136.25;64.53;;;-0.80;99.90;;;;;;5069673;28;19908;-77
2023/02/16 05:39:39;;;;;;;152.75;68.63;;;-0.80;99.90;;;;;;5069318;28;20028;-78
2023/02/16 05:42:05;;;;;;;;;;;-0.80;99.90;;;;;;5069583;28;20515;-76
2023/02/16 05:44:31;;;;;;;160.00;73.72;;;-0.80;99.90;;;;;;5069178;28;20269;-77
2023/02/16 05:46:56;;;;;;;;;;;-0.80;99.90;;;;;;5069704;28;20028;-77
2023/02/16 05:49:22;;;;;;;176.93;81.72;;;-0.90;99.90;;;;;;5069089;28;19927;-77
2023/02/16 05:51:47;;;;;;;;;;;-0.90;99.90;;;;;;5069428;28;20045;-77
2023/02/16 05:54:16;;;;;;;170.82;77.03;;;-0.90;99.90;;;;;;5050971;28;19923;-76
2023/02/16 05:56:44;;;;;;;199.50;95.28;;;-0.90;99.90;;;;;;5050743;28;20112;-76
2023/02/16 05:59:09;;;;;;;244.32;112.50;;;-1.00;99.90;;;;;;5050794;28;20115;-76
2023/02/16 06:01:35;;;;;;;;;;;-1.00;99.90;;;;;;5050903;28;20111;-76
2023/02/16 06:04:01;;;;;;;214.90;98.97;;;-1.00;99.90;;;;;;5050529;28;20373;-78
2023/02/16 06:06:26;;;;;;;;;;;-1.00;99.90;;;;;;5068897;28;20138;-76
2023/02/16 06:08:52;;;;;;;216.57;97.50;;;-1.10;99.90;;;;;;5068721;28;19909;-77
2023/02/16 06:11:36;;;;;;;;;;;-1.10;99.90;;;;;;5050879;28;20031;-76
2023/02/16 06:14:13;;;;;;;230.75;106.50;;;-1.10;99.90;;;;;;5068610;28;19941;-76
2023/02/16 06:16:41;;;;;;;210.25;96.60;;;-0.90;99.90;;;;;;5068393;28;20162;-76
2023/02/16 06:19:08;;;;;;;204.23;93.72;;;-0.90;99.90;;;;;;5050811;28;20041;-76
2023/02/16 06:21:35;;;;;;;198.73;95.22;;;-0.80;99.90;;;;;;5068459;28;20021;-77
2023/02/16 06:24:00;;;;;;;205.43;95.57;;;-0.70;99.90;;;;;;5068535;28;20025;-76
2023/02/16 06:26:26;;;;;;;;;;;-0.60;99.90;;;;;;5050946;28;20033;-76
2023/02/16 06:28:52;;;;;;;245.75;104.28;;;-0.50;99.90;;;;;;5068588;28;20387;-76
2023/02/16 06:31:18;;;;;;;247.05;109.60;;;-0.40;99.90;;;;;;5068648;28;20028;-76
2023/02/16 06:33:44;;;;;;;;;;;-0.40;99.90;;;;;;5050518;28;20052;-77
2023/02/16 06:36:10;;;;;;;210.20;98.97;;;-0.20;99.90;;;;;;5050460;28;19914;-76
2023/02/16 06:38:36;;;;;;;207.23;97.72;;;-0.20;99.90;;;;;;5068136;28;20043;-77
2023/02/16 06:41:02;;;;;;;;;;;-0.10;99.90;;;;;;5050218;28;20024;-77
2023/02/16 06:43:27;;;;;;;209.88;88.05;;;0.00;99.90;;;;;;5050362;28;19928;-77
2023/02/16 06:45:53;;;;;;;;;;;0.20;99.90;;;;;;5068661;28;20028;-76
2023/02/16 06:48:19;;;;;;;167.93;82.45;;;0.50;99.90;;;;;;5068251;28;20003;-78
2023/02/16 06:50:44;;;;;;;;;;;0.90;99.90;;;;;;5068616;28;20032;-77
2023/02/16 06:53:10;;;;;;;138.23;68.53;;;1.40;99.90;;;;;;5049757;28;19915;-76
2023/02/16 06:55:36;;;;;;;;;;;1.90;99.90;;;;;;5050767;28;20036;-76
2023/02/16 06:58:03;;;;;;;130.25;66.78;;;2.60;99.90;;;;;;5068261;28;19915;-77
2023/02/16 07:00:29;;;;;;;127.78;71.60;;;3.10;99.90;;;;;;5049918;28;20485;-78
2023/02/16 07:02:54;;;;;;;;;;;3.60;99.90;;;;;;5050333;28;20033;-76
2023/02/16 07:05:20;;;;;;;110.00;59.88;;;4.10;99.90;;;;;;5068088;28;19950;-77
2023/02/16 07:07:45;;;;;;;;;;;4.50;99.90;;;;;;5068547;28;20437;-77
2023/02/16 07:10:11;;;;;;;116.68;63.58;;;4.80;99.90;;;;;;5050051;28;19904;-77
2023/02/16 07:12:37;;;;;;;;;;;5.10;99.90;;;;;;5050780;28;20055;-77
2023/02/16 07:15:03;;;;;;;118.65;61.10;;;5.40;99.90;;;;;;5050073;28;19920;-77
2023/02/16 07:17:29;;;;;;;111.85;62.55;;;5.70;99.90;;;;;;5067818;28;20052;-77
2023/02/16 07:19:55;;;;;;;;;;;5.90;99.90;;;;;;5050434;28;20106;-77
2023/02/16 07:22:20;;;;;;;75.45;42.08;;;6.10;99.90;;;;;;5049978;28;19912;-76
2023/02/16 07:24:46;;;;;;;;;;;6.30;99.90;;;;;;5068173;28;20036;-77
2023/02/16 07:27:11;;;;;;;59.85;33.42;;;6.50;99.90;;;;;;5067894;28;19904;-77
2023/02/16 07:29:37;;;;;;;;;;;6.50;99.90;;;;;;5050274;28;20035;-77
2023/02/16 07:32:03;;;;;;;50.67;31.13;;;6.70;99.90;;;;;;5067429;28;19915;-77
2023/02/16 07:34:28;;;;;;;65.20;32.50;;;7.10;99.90;;;;;;5067372;28;20124;-77
2023/02/16 07:36:54;;;;;;;;;;;7.40;99.90;;;;;;5068425;28;20083;-76
2023/02/16 07:39:20;;;;;;;51.38;30.75;;;7.60;99.90;;;;;;5067729;28;20009;-77
2023/02/16 07:41:45;;;;;;;;;;;8.00;99.90;;;;;;5068031;28;20104;-77
2023/02/16 07:44:11;;;;;;;53.83;32.15;;;8.20;99.90;;;;;;5049770;28;19916;-77
2023/02/16 07:46:36;;;;;;;;;;;8.40;99.90;;;;;;5050092;28;20032;-76
2023/02/16 07:49:02;;;;;;;57.63;33.60;;;8.60;99.90;;;;;;5049567;28;19909;-76
2023/02/16 07:51:29;;;;;;;;;;;8.60;99.90;;;;;;5050248;28;20467;-76
2023/02/16 07:53:56;;;;;;;57.00;35.95;;;8.70;97.90;;;;;;5070399;28;19912;-78
2023/02/16 07:56:24;;;;;;;60.97;38.95;;;8.80;99.40;;;;;;5053277;28;20040;-77
2023/02/16 07:58:55;;;;;;;64.45;38.45;;;9.00;99.40;;;;;;5053504;28;20053;-76
2023/02/16 08:01:21;;;;;;;65.93;41.63;;;9.00;99.40;;;;;;5071215;28;20032;-77
2023/02/16 08:03:47;;;;;;;59.55;39.08;;;8.90;98.90;;;;;;5071305;28;20016;-77
2023/02/16 08:06:13;;;;;;;;;;;8.80;99.20;;;;;;5053522;28;20033;-77
2023/02/16 08:08:39;;;;;;;57.15;34.20;;;8.80;98.50;;;;;;5071036;28;19908;-76
2023/02/16 08:11:21;;;;;;;;;;;9.10;99.40;;;;;;5053359;28;20024;-75
2023/02/16 08:13:47;;;;;;;51.47;33.60;;;9.20;97.60;;;;;;5070604;28;19958;-75
2023/02/16 08:16:18;;;;;;;;;;;9.30;98.10;;;;;;5071234;28;20051;-76
2023/02/16 08:18:44;;;;;;;55.92;37.08;;;9.50;97.50;;;;;;5052852;28;19915;-77
2023/02/16 08:21:12;;;;;;;;;;;9.60;98.50;;;;;;5070988;28;20247;-76
2023/02/16 08:23:42;;;;;;;54.15;32.20;;;9.80;96.60;;;;;;5070909;28;19908;-76
2023/02/16 08:26:10;;;;;;;50.70;31.67;;;10.00;96.30;;;;;;5052765;28;20650;-76
2023/02/16 08:28:44;;;;;;;53.50;35.58;;;10.30;94.70;;;;;;5070519;28;20028;-77
2023/02/16 08:31:12;;;;;;;70.95;42.55;;;10.50;92.50;;;;;;5070587;28;20063;-77
2023/02/16 08:33:38;;;;;;;60.90;40.17;;;10.80;91.40;;;;;;5070279;28;20044;-77
2023/02/16 08:36:08;;;;;;;54.67;36.83;;;11.00;91.10;;;;;;5070500;28;20056;-77
2023/02/16 08:38:34;;;;;;;48.80;32.15;;;11.30;89.60;;;;;;5070274;28;20025;-77
2023/02/16 08:41:00;;;;;;;53.10;33.35;;;11.40;85.90;;;;;;5070598;28;20026;-76
2023/02/16 08:43:26;;;;;;;;;;;11.30;89.30;;;;;;5071137;28;20044;-77
2023/02/16 08:45:52;;;;;;;49.58;33.00;;;11.50;86.10;;;;;;5052430;28;20001;-77
2023/02/16 08:48:17;;;;;;;51.42;32.90;;;11.70;85.60;;;;;;5070183;28;20103;-77
2023/02/16 08:50:45;;;;;;;;;;;11.90;82.50;;;;;;5053063;28;20502;-77
2023/02/16 08:53:12;;;;;;;58.40;35.92;;;11.90;81.00;;;;;;5070154;28;20304;-77
2023/02/16 08:55:38;;;;;;;53.55;34.60;;;11.90;82.30;;;;;;5052228;28;20481;-77
2023/02/16 08:58:04;;;;;;;;;;;12.10;79.30;;;;;;5052638;28;20028;-76
2023/02/16 09:00:33;;;;;;;50.73;34.03;;;12.30;78.70;;;;;;5051984;28;19908;-78
2023/02/16 09:02:59;;;;;;;51.58;34.15;;;12.60;78.50;;;;;;5051787;28;20271;-77
2023/02/16 09:05:26;;;;;;;50.17;35.13;;;12.90;76.50;;;;;;5051836;28;20032;-76
2023/02/16 09:07:53;;;;;;;60.33;39.20;;;12.90;75.70;;;;;;5069894;28;20546;-77
2023/02/16 09:10:21;;;;;;;54.75;36.67;;;13.20;74.30;;;;;;5069464;28;20040;-77
2023/02/16 09:12:48;;;;;;;54.90;35.63;;;13.30;74.20;;;;;;5069565;28;20125;-77
2023/02/16 09:15:15;;;;;;;51.33;33.80;;;13.20;73.10;;;;;;5069666;28;20118;-77
2023/02/16 09:17:41;;;;;;;48.95;34.78;;;13.50;72.60;;;;;;5069620;28;20020;-77
2023/02/16 09:20:08;;;;;;;54.45;35.22;;;13.80;71.10;;;;;;5069552;28;20591;-76
2023/02/16 09:22:34;;;;;;;50.25;34.78;;;13.80;70.00;;;;;;5069266;28;20115;-77
2023/02/16 09:25:00;;;;;;;60.20;37.15;;;13.90;70.10;;;;;;5069582;28;20077;-76
2023/02/16 09:27:26;;;;;;;67.22;44.83;;;13.80;69.80;;;;;;5069602;28;20665;-77
2023/02/16 09:29:52;;;;;;;67.00;43.10;;;13.80;70.10;;;;;;5069673;28;20024;-77
2023/02/16 09:32:18;;;;;;;64.40;40.45;;;13.90;70.30;;;;;;5051190;28;20035;-76
2023/02/16 09:34:43;;;;;;;62.42;42.80;;;14.10;69.00;;;;;;5051318;28;20024;-77
2023/02/16 09:37:10;;;;;;;59.92;40.63;;;14.20;67.10;;;;;;5069415;28;20035;-77
2023/02/16 09:39:35;;;;;;;56.97;39.00;;;14.20;65.70;;;;;;5069291;28;20029;-77
2023/02/16 09:42:20;;;;;;;47.53;33.50;;;14.10;66.60;;;;;;5051415;28;20035;-77
2023/02/16 09:45:08;;;;;;;53.55;37.17;;;14.10;67.10;;;;;;5069194;28;20061;-76
2023/02/16 09:47:38;;;;;;;56.08;40.13;;;14.20;67.30;;;;;;5069263;28;20020;-78
2023/02/16 09:50:14;;;;;;;57.80;35.30;;;14.20;66.70;;;;;;5051172;28;20040;-77
2023/02/16 09:52:47;;;;;;;54.70;37.88;;;14.50;65.20;;;;;;5051131;28;20025;-78
2023/02/16 09:55:15;;;;;;;57.50;38.75;;;14.30;66.00;;;;;;5051005;28;20198;-77
2023/02/16 09:57:57;;;;;;;55.92;39.03;;;14.40;64.70;;;;;;5069002;28;20044;-77
2023/02/16 10:00:26;;;;;;;59.58;39.20;;;14.10;65.70;;;;;;5068567;28;20032;-78
2023/02/16 10:03:13;;;;;;;58.50;40.08;;;14.10;65.70;;;;;;5051120;28;20032;-77
2023/02/16 10:06:00;;;;;;;55.72;38.33;;;13.90;66.70;;;;;;5050609;28;20037;-76
2023/02/16 10:08:37;;;;;;;56.42;37.80;;;13.60;68.20;;;;;;5068516;28;20055;-77
2023/02/16 10:11:37;;;;;;;62.03;38.33;;;13.10;70.30;;;;;;5068472;28;20032;-77
2023/02/16 10:14:16;;;;;;;53.55;37.03;;;12.50;71.70;;;;;;5070149;28;20394;-76
2023/02/16 10:16:57;;;;;;;53.53;35.88;;;12.20;74.70;;;;;;5068184;28;20073;-77
2023/02/16 10:19:42;;;;;;;64.22;40.35;;;11.80;77.30;;;;;;5050688;28;20037;-77
2023/02/16 10:22:14;;;;;;;70.75;43.30;;;11.50;77.70;;;;;;5068631;28;20085;-77
2023/02/16 10:24:59;;;;;;;73.22;44.78;;;10.90;83.10;;;;;;5068697;28;20028;-77
2023/02/16 10:27:35;;;;;;;66.47;42.45;;;10.40;89.60;;;;;;5068651;28;20052;-77
2023/02/16 10:30:01;;;;;;;63.63;41.13;;;9.90;92.50;;;;;;5068635;28;20021;-76
2023/02/16 10:32:31;;;;;;;;;;;9.80;94.50;;;;;;5050531;28;20033;-77
2023/02/16 10:35:16;;;;;;;67.70;42.03;;;9.80;97.10;;;;;;5050444;28;19920;-77
2023/02/16 10:37:59;;;;;;;65.50;40.20;;;9.80;98.30;;;;;;5050483;28;20539;-77
2023/02/16 10:40:33;;;;;;;68.68;39.95;;;9.80;98.50;;;;;;5068249;28;20059;-77
2023/02/16 10:43:09;;;;;;;74.72;43.88;;;9.70;99.60;;;;;;5068538;28;20107;-76
2023/02/16 10:45:39;;;;;;;49.55;31.98;;;9.70;99.90;;;;;;5068532;28;20025;-76
2023/02/16 10:48:04;;;;;;;54.03;33.60;;;9.80;99.40;;;;;;5050294;28;20032;-77
2023/02/16 10:50:34;;;;;;;;;;;9.80;98.90;;;;;;5068515;28;20016;-77
2023/02/16 10:53:23;;;;;;;56.42;33.53;;;9.70;99.90;;;;;;5050300;28;20312;-78
2023/02/16 10:55:48;;;;;;;55.53;34.70;;;9.70;99.90;;;;;;5068145;28;20109;-77
2023/02/16 10:58:17;;;;;;;;;;;9.70;99.90;;;;;;5068596;28;20504;-77
2023/02/16 11:00:58;;;;;;;49.70;31.48;;;9.80;99.90;;;;;;5067970;28;20000;-77
2023/02/16 11:03:29;;;;;;;51.33;31.60;;;9.80;99.90;;;;;;5068032;28;20033;-76
2023/02/16 11:05:54;;;;;;;55.70;32.33;;;9.80;99.90;;;;;;5067986;28;20024;-77
2023/02/16 11:08:20;;;;;;;;;;;9.70;99.90;;;;;;5050393;28;20459;-77
2023/02/16 11:10:51;;;;;;;37.58;25.45;;;9.70;99.20;;;;;;5068101;28;19916;-76
2023/02/16 11:13:34;;;;;;;38.47;24.63;;;9.80;97.90;;;;;;5068005;28;20029;-77
2023/02/16 11:16:24;;;;;;;43.33;25.50;;;9.80;98.20;;;;;;5050201;28;20086;-76
2023/02/16 11:19:04;;;;;;;44.15;26.02;;;9.70;99.00;;;;;;5067283;28;20044;-77
2023/02/16 11:21:50;;;;;;;42.63;27.13;;;9.60;99.50;;;;;;5049967;28;20029;-77
2023/02/16 11:24:28;;;;;;;38.93;25.70;;;9.70;99.90;;;;;;5067820;28;20487;-76
2023/02/16 11:27:12;;;;;;;49.88;26.85;;;9.70;99.60;;;;;;5069287;28;20273;-77
2023/02/16 11:29:38;;;;;;;46.40;24.88;;;9.70;99.90;;;;;;5071787;28;20024;-77
2023/02/16 11:32:06;;;;;;;;;;;9.80;99.40;;;;;;5054189;28;20021;-77
2023/02/16 11:34:35;;;;;;;35.53;22.48;;;9.70;99.40;;;;;;5071274;28;20007;-77
2023/02/16 11:37:30;;;;;;;34.88;21.98;;;9.70;98.90;;;;;;5071448;28;20111;-78
2023/02/16 11:40:27;;;;;;;43.97;23.48;;;9.70;97.80;;;;;;5071949;28;20021;-76
2023/02/16 11:42:56;;;;;;;38.08;23.70;;;9.60;99.90;;;;;;5024728;28;20037;-77
2023/02/16 11:45:27;;;;;;;40.65;23.65;;;9.60;99.30;;;;;;5071478;28;20027;-78
2023/02/16 11:48:00;;;;;;;39.90;24.30;;;9.50;99.60;;;;;;5071501;28;20036;-77
2023/02/16 11:50:31;;;;;;;35.72;21.77;;;9.40;99.90;;;;;;5071301;28;20027;-77
2023/02/16 11:53:13;;;;;;;37.80;21.98;;;9.40;99.90;;;;;;5071119;28;20025;-77
2023/02/16 11:55:45;;;;;;;39.47;21.85;;;9.40;99.90;;;;;;5053373;28;20037;-76
2023/02/16 11:58:18;;;;;;;37.45;23.02;;;9.40;99.90;;;;;;5071436;28;20025;-77
2023/02/16 12:01:09;;;;;;;38.45;24.15;;;9.40;99.90;;;;;;5071249;28;20202;-77
2023/02/16 12:03:59;;;;;;;37.50;22.90;;;9.50;99.90;;;;;;5071178;28;20067;-77
2023/02/16 12:06:49;;;;;;;41.40;25.20;;;9.40;99.90;;;;;;5053006;28;20032;-77
2023/02/16 12:09:22;;;;;;;44.30;25.58;;;9.40;99.90;;;;;;5070948;28;20401;-77
2023/02/16 12:11:54;;;;;;;40.47;25.05;;;9.40;99.90;;;;;;5070932;28;20067;-77
2023/02/16 12:14:35;;;;;;;48.72;26.42;;;9.30;99.90;;;;;;5070678;28;20036;-76
2023/02/16 12:17:13;;;;;;;41.47;24.55;;;9.30;99.90;;;;;;5052778;28;20029;-76
2023/02/16 12:20:10;;;;;;;45.17;26.48;;;9.30;99.90;;;;;;5070825;28;20382;-77
2023/02/16 12:22:42;;;;;;;48.17;25.35;;;9.30;99.90;;;;;;5057697;28;20083;-77
2023/02/16 12:25:36;;;;;;;47.08;25.27;;;9.40;99.90;;;;;;5052907;28;20044;-76
2023/02/16 12:28:20;;;;;;;41.22;24.48;;;9.30;99.90;;;;;;5052821;28;20063;-77
2023/02/16 12:31:08;;;;;;;44.05;25.58;;;9.30;99.90;;;;;;5052693;28;20754;-77
2023/02/16 12:33:58;;;;;;;39.38;23.75;;;9.30;99.90;;;;;;5070401;28;20816;-77
2023/02/16 12:36:31;;;;;;;39.20;25.75;;;9.20;99.90;;;;;;5052233;28;20509;-77
2023/02/16 12:39:02;;;;;;;45.45;26.35;;;9.20;99.90;;;;;;5051867;28;20123;-77
2023/02/16 12:41:54;;;;;;;41.10;26.23;;;9.30;99.90;;;;;;5052588;28;20036;-77
2023/02/16 12:44:45;;;;;;;38.40;23.92;;;9.30;99.90;;;;;;5070321;28;20028;-77
2023/02/16 12:47:25;;;;;;;43.25;25.83;;;9.40;99.90;;;;;;5064067;28;20032;-78
2023/02/16 12:50:12;;;;;;;42.42;26.88;;;9.40;99.90;;;;;;5063910;28;20074;-76
2023/02/16 12:52:51;;;;;;;43.97;27.23;;;9.50;99.90;;;;;;5052269;28;20071;-78
2023/02/16 12:55:35;;;;;;;43.38;27.13;;;9.60;99.90;;;;;;5070105;28;20040;-78
2023/02/16 12:58:06;;;;;;;43.15;27.15;;;9.60;99.90;;;;;;5070074;28;20055;-78
2023/02/16 13:00:47;;;;;;;47.03;28.55;;;9.70;99.90;;;;;;5070024;28;20040;-78
2023/02/16 13:03:19;;;;;;;49.03;27.50;;;9.70;99.90;;;;;;5046669;28;20032;-77
2023/02/16 13:05:53;;;;;;;49.38;28.08;;;9.70;99.90;;;;;;5069852;28;20409;-77
2023/02/16 13:08:33;;;;;;;42.35;27.00;;;9.80;99.90;;;;;;5069649;28;20157;-78
2023/02/16 13:11:21;;;;;;;39.13;25.35;;;9.90;99.90;;;;;;5069898;28;20389;-77
2023/02/16 13:13:50;;;;;;;48.33;28.67;;;9.90;99.90;;;;;;5051608;28;20032;-77
2023/02/16 13:16:37;;;;;;;48.33;28.23;;;9.90;99.90;;;;;;5069573;28;20042;-76
2023/02/16 13:19:02;;;;;;;40.83;25.40;;;9.80;99.90;;;;;;5051866;28;20423;-78
2023/02/16 13:21:31;;;;;;;;;;;9.80;99.90;;;;;;5070065;28;20089;-77
2023/02/16 13:24:12;;;;;;;41.65;26.73;;;9.80;99.90;;;;;;5051718;28;19908;-77
2023/02/16 13:26:50;;;;;;;48.17;28.17;;;9.80;99.90;;;;;;5069566;28;20063;-78
2023/02/16 13:29:21;;;;;;;49.67;28.95;;;10.00;99.90;;;;;;5051743;28;20073;-77
2023/02/16 13:32:06;;;;;;;47.42;28.88;;;10.00;99.90;;;;;;5051728;28;20036;-77
2023/02/16 13:34:44;;;;;;;41.63;26.73;;;10.00;99.80;;;;;;5050961;28;20098;-77
2023/02/16 13:37:30;;;;;;;43.47;27.77;;;10.00;99.30;;;;;;5069427;28;20031;-77
2023/02/16 13:40:15;;;;;;;53.33;32.30;;;10.00;99.60;;;;;;5051489;28;20051;-77
2023/02/16 13:43:01;;;;;;;49.55;28.35;;;10.00;99.20;;;;;;5069224;28;20021;-78
2023/02/16 13:45:36;;;;;;;46.70;29.60;;;9.90;99.50;;;;;;5069394;28;20032;-78
2023/02/16 13:48:20;;;;;;;55.92;34.63;;;9.80;99.90;;;;;;5069113;28;20035;-78
2023/02/16 13:50:46;;;;;;;55.40;33.53;;;9.80;99.90;;;;;;5050331;28;20037;-77
2023/02/16 13:53:17;;;;;;;;;;;9.80;99.90;;;;;;5069441;28;20668;-77